Time;durP1;ratioP1;P1;durP2;ratioP2;P2;SDS_P1;SDS_P2;PMS_P1;PMS_P2;Temp;Humidity;BMP_temperature;BMP_pressure;BME280_temperature;BME280_humidity;BME280_pressure;Samples;Min_cycle;Max_cycle;Signal;HPM_P1;HPM_P2
2023/02/07 00:00:55;;;;;;;131.10;64.90;;;;;;;-4.85;86.77;102856.81;107484;1253;95562;-55
2023/02/07 00:03:55;;;;;;;114.30;56.80;;;;;;;-4.86;86.84;102851.03;107486;1253;83064;-56
2023/02/07 00:06:39;;;;;;;115.00;57.30;;;;;;;-4.79;86.89;102844.92;107462;1253;82468;-57
2023/02/07 00:09:17;;;;;;;107.40;53.80;;;;;;;-4.73;87.08;102840.92;107528;1253;98207;-57
2023/02/07 00:12:01;;;;;;;104.90;54.10;;;;;;;-4.69;87.14;102836.27;107484;1254;88887;-58
2023/02/07 00:14:43;;;;;;;105.70;52.30;;;;;;;-4.63;87.14;102836.13;107375;1253;94881;-56
2023/02/07 00:17:25;;;;;;;108.50;53.30;;;;;;;-4.60;87.15;102829.73;107480;1253;80633;-57
2023/02/07 00:20:05;;;;;;;111.00;52.30;;;;;;;-4.57;86.97;102825.45;107523;1253;82914;-57
2023/02/07 00:22:47;;;;;;;107.40;52.60;;;;;;;-4.56;87.13;102818.40;107491;1254;100053;-57
2023/02/07 00:25:23;;;;;;;114.80;52.90;;;;;;;-4.54;86.78;102813.77;107477;1257;88762;-55
2023/02/07 00:28:02;;;;;;;103.60;52.40;;;;;;;-4.52;86.81;102809.16;107485;1257;94760;-55
2023/02/07 00:30:44;;;;;;;105.80;52.60;;;;;;;-4.51;86.84;102812.31;107503;1254;80937;-58
2023/02/07 00:33:24;;;;;;;90.20;42.10;;;;;;;-4.49;87.15;102814.54;107467;1253;82419;-57
2023/02/07 00:36:07;;;;;;;102.40;50.70;;;;;;;-4.46;87.30;102811.30;107463;1253;97247;-57
2023/02/07 00:38:52;;;;;;;102.80;49.10;;;;;;;-4.41;87.38;102820.52;107497;1253;89168;-56
2023/02/07 00:41:32;;;;;;;98.10;51.70;;;;;;;-4.34;87.31;102820.02;107440;1257;93855;-57
2023/02/07 00:44:07;;;;;;;98.70;52.60;;;;;;;-4.30;87.18;102820.79;107526;1254;78934;-55
2023/02/07 00:46:49;;;;;;;100.80;50.50;;;;;;;-4.29;87.42;102824.11;107499;1254;83398;-54
2023/02/07 00:49:34;;;;;;;103.10;48.60;;;;;;;-4.28;87.22;102821.80;107516;1256;99089;-55
2023/02/07 00:52:18;;;;;;;102.10;48.70;;;;;;;-4.24;87.01;102823.09;107471;1253;88655;-55
2023/02/07 00:55:00;;;;;;;97.60;50.00;;;;;;;-4.20;87.00;102818.60;107481;1254;95272;-57
2023/02/07 00:57:39;;;;;;;100.20;48.70;;;;;;;-4.20;87.06;102817.38;107453;1254;81085;-57
2023/02/07 01:00:17;;;;;;;99.30;48.40;;;;;;;-4.18;87.02;102815.05;107504;1253;83324;-56
2023/02/07 01:02:55;;;;;;;94.40;50.30;;;;;;;-4.15;86.96;102811.30;107487;1253;99483;-57
2023/02/07 01:05:35;;;;;;;94.70;47.50;;;;;;;-4.11;87.21;102805.92;107492;1254;88871;-55
2023/02/07 01:08:15;;;;;;;95.30;49.90;;;;;;;-4.06;87.00;102800.85;107485;1254;95733;-55
2023/02/07 01:10:50;;;;;;;95.70;48.40;;;;;;;-4.05;87.40;102792.91;107518;1256;77760;-57
2023/02/07 01:13:30;;;;;;;89.10;46.40;;;;;;;-4.02;87.14;102800.74;107493;1254;83330;-56
2023/02/07 01:16:08;;;;;;;91.10;46.20;;;;;;;-3.97;87.40;102807.48;107488;1253;99677;-55
2023/02/07 01:18:51;;;;;;;94.60;46.00;;;;;;;-3.99;87.55;102813.88;107534;1254;88055;-57
2023/02/07 01:21:30;;;;;;;;;;;;;;;-3.99;87.28;102818.98;107490;1253;95307;-58
2023/02/07 01:24:10;;;;;;;93.00;48.20;;;;;;;-3.96;87.34;102821.02;107510;1254;82622;-56
2023/02/07 01:26:50;;;;;;;94.90;45.80;;;;;;;-3.94;87.38;102823.27;107517;1253;81004;-57
2023/02/07 01:29:29;;;;;;;92.00;45.20;;;;;;;-3.92;87.39;102821.99;107532;1253;99928;-55
2023/02/07 01:32:06;;;;;;;90.50;46.40;;;;;;;-3.90;87.64;102820.16;107484;1253;87443;-55
2023/02/07 01:34:44;;;;;;;91.70;46.10;;;;;;;-3.86;87.57;102822.89;107494;1257;95936;-57
2023/02/07 01:37:26;;;;;;;95.40;45.40;;;;;;;-3.80;87.82;102820.27;107446;1257;81279;-57
2023/02/07 01:40:03;;;;;;;88.20;44.10;;;;;;;-3.75;87.35;102816.59;107509;1257;82726;-57
2023/02/07 01:42:46;;;;;;;84.80;44.70;;;;;;;-3.72;87.62;102814.23;107515;1257;97997;-57
2023/02/07 01:45:30;;;;;;;;;;;;;;;-3.67;87.37;102817.11;107553;1257;88976;-55
2023/02/07 01:48:17;;;;;;;78.40;41.00;;;;;;;-3.62;87.25;102813.96;107495;1254;95296;-55
2023/02/07 01:50:59;;;;;;;81.60;44.20;;;;;;;-3.61;87.31;102808.48;107479;1253;79540;-54
2023/02/07 01:53:40;;;;;;;80.40;42.10;;;;;;;-3.61;87.32;102805.14;107515;1257;80352;-56
2023/02/07 01:56:19;;;;;;;79.90;41.20;;;;;;;-3.61;87.23;102806.02;107494;1253;98961;-57
2023/02/07 01:58:59;;;;;;;74.80;41.20;;;;;;;-3.61;87.48;102811.30;107513;1256;86870;-55
2023/02/07 02:01:36;;;;;;;81.00;41.00;;;;;;;-3.55;87.61;102811.48;107460;1257;94832;-55
2023/02/07 02:04:21;;;;;;;80.50;40.40;;;;;;;-3.48;87.51;102806.20;107509;1253;79411;-55
2023/02/07 02:07:08;;;;;;;73.90;38.80;;;;;;;-3.44;87.38;102808.58;107510;1253;81848;-55
2023/02/07 02:09:52;;;;;;;75.70;38.30;;;;;;;-3.41;87.59;102804.79;107492;1256;99490;-55
2023/02/07 02:12:47;;;;;;;76.30;40.00;;;;;;;-3.34;87.84;102806.52;107529;1254;88906;-55
2023/02/07 02:15:35;;;;;;;75.70;40.00;;;;;;;-3.32;87.75;102804.02;107499;1254;94684;-57
2023/02/07 02:18:41;;;;;;;77.70;39.60;;;;;;;-3.32;87.43;102806.13;107451;1253;81222;-58
2023/02/07 02:21:58;;;;;;;82.30;39.00;;;;;;;-3.28;87.28;102808.49;107521;1253;80516;-57
2023/02/07 02:25:26;;;;;;;70.60;37.30;;;;;;;-3.28;87.47;102814.30;107461;1253;99315;-54
2023/02/07 02:28:33;;;;;;;74.30;36.50;;;;;;;-3.25;87.47;102809.24;107516;1253;88468;-54
2023/02/07 02:31:40;;;;;;;69.10;35.90;;;;;;;-3.23;87.64;102807.79;107459;1257;94846;-55
2023/02/07 02:34:25;;;;;;;69.20;35.70;;;;;;;-3.17;87.75;102807.29;107488;1257;81372;-54
2023/02/07 02:37:15;;;;;;;67.20;36.60;;;;;;;-3.09;87.81;102807.95;107493;1253;82380;-54
2023/02/07 02:40:04;;;;;;;70.70;37.00;;;;;;;-3.08;87.64;102804.02;107514;1253;99084;-57
2023/02/07 02:42:49;;;;;;;73.10;38.70;;;;;;;-3.06;87.74;102799.91;107541;1253;87254;-56
2023/02/07 02:45:33;;;;;;;73.20;37.60;;;;;;;-3.03;87.66;102795.59;107466;1253;95291;-57
2023/02/07 02:48:12;;;;;;;73.00;38.00;;;;;;;-3.03;87.57;102795.77;107511;1253;80793;-57
2023/02/07 02:50:50;;;;;;;71.00;37.60;;;;;;;-3.03;87.47;102796.84;107535;1257;82035;-55
2023/02/07 02:53:31;;;;;;;75.00;38.40;;;;;;;-3.06;87.68;102804.69;107524;1254;100026;-56
2023/02/07 02:56:54;;;;;;;69.20;36.90;;;;;;;-3.04;87.89;102810.42;107490;1253;88368;-56
2023/02/07 03:00:10;;;;;;;73.60;38.00;;;;;;;-3.00;87.78;102806.63;107542;1253;94930;-55
2023/02/07 03:03:01;;;;;;;66.30;35.90;;;;;;;-2.95;87.92;102802.08;107499;1253;79652;-54
2023/02/07 03:05:55;;;;;;;68.00;37.40;;;;;;;-2.91;87.85;102799.67;107530;1257;82304;-55
2023/02/07 03:08:46;;;;;;;65.10;35.70;;;;;;;-2.90;88.01;102792.04;107525;1253;99020;-55
2023/02/07 03:11:25;;;;;;;65.60;36.40;;;;;;;-2.87;88.08;102793.57;107547;1253;88830;-54
2023/02/07 03:14:15;;;;;;;60.50;33.90;;;;;;;-2.89;87.82;102792.37;107513;1254;94668;-55
2023/02/07 03:17:01;;;;;;;61.20;32.10;;;;;;;-2.90;87.98;102799.83;107495;1253;80842;-55
2023/02/07 03:19:45;;;;;;;70.10;37.00;;;;;;;-2.90;88.11;102800.68;107511;1257;82552;-55
2023/02/07 03:22:25;;;;;;;65.90;35.20;;;;;;;-2.88;88.24;102797.11;107485;1253;97726;-55
2023/02/07 03:25:04;;;;;;;68.60;35.10;;;;;;;-2.85;88.18;102791.73;107552;1253;87288;-54
2023/02/07 03:27:39;;;;;;;61.50;33.70;;;;;;;-2.80;88.33;102785.74;107502;1253;92786;-55
2023/02/07 03:30:18;;;;;;;58.10;32.20;;;;;;;-2.75;88.41;102776.95;107522;1257;80396;-55
2023/02/07 03:33:10;;;;;;;63.80;33.30;;;;;;;-2.68;88.28;102776.23;107494;1253;81878;-54
2023/02/07 03:35:56;;;;;;;58.20;31.70;;;;;;;-2.65;88.42;102777.17;107538;1254;98733;-56
2023/02/07 03:38:42;;;;;;;60.40;31.60;;;;;;;-2.61;88.42;102774.25;107516;1253;87941;-55
2023/02/07 03:41:35;;;;;;;56.80;31.50;;;;;;;-2.60;88.68;102775.95;107504;1253;95374;-58
2023/02/07 03:44:14;;;;;;;;;;;;;;;-2.58;88.56;102779.24;107513;1253;80277;-57
2023/02/07 03:46:53;;;;;;;59.70;32.30;;;;;;;-2.56;88.52;102781.65;107511;1253;82277;-57
2023/02/07 03:49:32;;;;;;;56.10;31.30;;;;;;;-2.54;88.60;102784.77;107510;1257;99014;-56
2023/02/07 03:52:18;;;;;;;55.90;31.10;;;;;;;-2.54;88.45;102781.79;107478;1257;88918;-57
2023/02/07 03:55:03;;;;;;;57.40;31.10;;;;;;;-2.50;88.65;102779.17;107520;1253;95124;-55
2023/02/07 03:57:45;;;;;;;55.50;32.30;;;;;;;-2.45;88.56;102781.32;107219;1253;394938;-55
2023/02/07 04:00:23;;;;;;;56.50;31.80;;;;;;;-2.42;88.58;102777.86;107538;1253;83048;-55
2023/02/07 04:03:00;;;;;;;57.10;35.10;;;;;;;-2.42;88.48;102780.16;107533;1253;100488;-55
2023/02/07 04:05:40;;;;;;;62.00;36.80;;;;;;;-2.45;88.50;102784.30;107505;1253;88813;-57
2023/02/07 04:08:17;;;;;;;64.80;36.00;;;;;;;-2.47;88.48;102784.35;107520;1253;94656;-57
2023/02/07 04:11:04;;;;;;;56.60;31.80;;;;;;;-2.46;88.62;102783.80;107486;1253;80856;-56
2023/02/07 04:13:48;;;;;;;57.90;32.80;;;;;;;-2.46;88.65;102788.56;107507;1253;80962;-55
2023/02/07 04:16:30;;;;;;;56.10;30.60;;;;;;;-2.45;88.74;102789.27;107516;1253;98297;-55
2023/02/07 04:19:10;;;;;;;54.00;30.50;;;;;;;-2.46;88.76;102790.86;107541;1254;89123;-55
2023/02/07 04:21:49;;;;;;;56.50;30.00;;;;;;;-2.46;88.71;102786.27;107507;1253;94942;-55
2023/02/07 04:24:30;;;;;;;54.90;29.40;;;;;;;-2.43;88.69;102779.30;107510;1253;80735;-57
2023/02/07 04:27:10;;;;;;;52.40;29.60;;;;;;;-2.37;88.66;102783.34;107493;1253;79412;-57
2023/02/07 04:29:52;;;;;;;47.40;28.20;;;;;;;-2.35;88.72;102781.35;107568;1254;98458;-58
2023/02/07 04:32:37;;;;;;;52.60;29.90;;;;;;;-2.33;88.85;102773.70;107522;1257;87596;-57
2023/02/07 04:35:12;;;;;;;51.30;29.70;;;;;;;-2.36;88.74;102778.20;107505;1257;93633;-57
2023/02/07 04:37:49;;;;;;;;;;;;;;;-2.35;88.49;102773.93;107561;1253;80926;-58
2023/02/07 04:40:34;;;;;;;50.50;28.20;;;;;;;-2.39;89.06;102764.54;107535;1257;82921;-57
2023/02/07 04:43:19;;;;;;;49.80;26.70;;;;;;;-2.40;89.01;102758.38;107501;1253;99048;-57
2023/02/07 04:46:01;;;;;;;48.60;28.10;;;;;;;-2.37;89.05;102759.73;107485;1254;86631;-55
2023/02/07 04:48:47;;;;;;;53.60;30.10;;;;;;;-2.36;88.74;102758.09;107505;1257;94290;-55
2023/02/07 04:51:27;;;;;;;51.00;27.80;;;;;;;-2.32;88.98;102762.88;107487;1253;80481;-57
2023/02/07 04:54:09;;;;;;;49.90;29.10;;;;;;;-2.27;88.70;102761.67;107546;1257;83028;-57
2023/02/07 04:56:54;;;;;;;50.90;28.40;;;;;;;-2.27;88.90;102765.73;107503;1257;98584;-57
2023/02/07 04:59:34;;;;;;;54.10;29.50;;;;;;;-2.24;89.01;102767.21;107530;1253;88378;-54
2023/02/07 05:02:15;;;;;;;56.20;31.00;;;;;;;-2.16;89.00;102769.08;107518;1253;95400;-53
2023/02/07 05:04:58;;;;;;;71.20;36.10;;;;;;;-2.12;89.01;102772.13;107540;1255;79864;-55
2023/02/07 05:07:46;;;;;;;103.80;46.00;;;;;;;-2.11;88.88;102782.66;107491;1253;82996;-54
2023/02/07 05:10:33;;;;;;;98.90;43.60;;;;;;;-2.12;88.89;102779.70;107526;1257;99523;-55
2023/02/07 05:13:17;;;;;;;84.10;38.90;;;;;;;-2.10;88.95;102781.06;107502;1256;89305;-54
2023/02/07 05:15:53;;;;;;;78.00;37.90;;;;;;;-2.12;88.65;102784.98;107509;1254;93348;-55
2023/02/07 05:18:37;;;;;;;96.00;40.10;;;;;;;-2.11;88.70;102788.68;107506;1253;79360;-55
2023/02/07 05:21:22;;;;;;;136.00;50.10;;;;;;;-2.14;88.82;102785.77;107529;1258;82063;-57
2023/02/07 05:24:03;;;;;;;146.00;54.60;;;;;;;-2.11;89.02;102780.73;107516;1256;97999;-58
2023/02/07 05:26:45;;;;;;;97.90;40.70;;;;;;;-2.06;88.76;102783.54;107482;1258;88745;-56
2023/02/07 05:29:27;;;;;;;95.20;39.60;;;;;;;-2.02;88.76;102782.55;107512;1254;94790;-54
2023/02/07 05:35:08;;;;;;;76.40;34.20;;;;;;;-1.99;88.93;102779.64;107338;1259;83119;-57
2023/02/07 05:37:47;;;;;;;78.50;35.70;;;;;;;-2.01;88.71;102776.52;107500;1256;98434;-57
2023/02/07 05:40:31;;;;;;;85.00;37.30;;;;;;;-2.03;88.87;102777.47;107542;1253;87784;-56
2023/02/07 05:43:15;;;;;;;61.60;32.10;;;;;;;-2.04;88.94;102771.86;107500;1254;95483;-57
2023/02/07 05:46:00;;;;;;;56.60;29.60;;;;;;;-2.02;88.85;102773.36;107497;1258;80168;-55
2023/02/07 05:48:42;;;;;;;67.40;34.70;;;;;;;-2.00;88.92;102776.64;107496;1257;82328;-57
2023/02/07 05:51:19;;;;;;;114.50;51.30;;;;;;;-1.98;88.92;102780.81;107516;1259;99783;-57
2023/02/07 05:53:59;;;;;;;125.90;53.80;;;;;;;-1.96;89.11;102772.11;107497;1253;88964;-55
2023/02/07 05:56:44;;;;;;;168.90;72.40;;;;;;;-1.94;88.92;102767.45;107503;1258;94677;-54
2023/02/07 05:59:25;;;;;;;280.80;118.90;;;;;;;-1.93;88.95;102776.42;107511;1253;79704;-57
2023/02/07 06:02:08;;;;;;;170.00;78.00;;;;;;;-1.91;89.02;102779.00;107544;1256;79962;-58
2023/02/07 06:04:57;;;;;;;151.50;67.70;;;;;;;-1.93;89.02;102778.17;107531;1259;100226;-58
2023/02/07 06:07:34;;;;;;;75.80;37.90;;;;;;;-1.91;88.83;102774.05;107474;1254;88479;-58
2023/02/07 06:10:11;;;;;;;78.40;40.00;;;;;;;-1.90;88.98;102777.91;107515;1253;94753;-57
2023/02/07 06:12:47;;;;;;;45.60;27.60;;;;;;;-1.86;88.88;102780.59;107518;1253;81526;-57
2023/02/07 06:15:30;;;;;;;55.50;28.70;;;;;;;-1.83;88.86;102781.21;107510;1253;82617;-57
2023/02/07 06:18:15;;;;;;;39.10;23.10;;;;;;;-1.82;88.87;102778.49;107478;1258;99879;-58
2023/02/07 06:20:57;;;;;;;39.60;22.00;;;;;;;-1.78;88.92;102775.56;107503;1254;85730;-59
2023/02/07 06:23:37;;;;;;;41.90;22.10;;;;;;;-1.77;88.93;102769.70;107508;1253;93676;-58
2023/02/07 06:26:20;;;;;;;39.00;21.00;;;;;;;-1.72;88.78;102770.77;107540;1254;77098;-58
2023/02/07 06:29:08;;;;;;;41.40;23.10;;;;;;;-1.69;88.91;102765.37;107533;1255;80409;-55
2023/02/07 06:31:54;;;;;;;52.40;28.10;;;;;;;-1.69;89.00;102765.54;107500;1254;99077;-56
2023/02/07 06:34:43;;;;;;;50.80;26.50;;;;;;;-1.70;89.03;102771.23;107546;1259;88172;-55
2023/02/07 06:37:26;;;;;;;44.60;24.00;;;;;;;-1.68;89.05;102775.20;107492;1258;94848;-56
2023/02/07 06:40:06;;;;;;;41.30;22.20;;;;;;;-1.65;88.90;102775.65;107462;1254;80322;-55
2023/02/07 06:42:44;;;;;;;41.70;25.10;;;;;;;-1.60;88.86;102782.55;107520;1253;83203;-56
2023/02/07 06:45:21;;;;;;;50.30;32.80;;;;;;;-1.57;88.94;102789.11;107525;1259;99369;-58
2023/02/07 06:48:04;;;;;;;81.30;47.30;;;;;;;-1.50;88.79;102781.27;107507;1257;88192;-57
2023/02/07 06:50:44;;;;;;;;;;;;;;;-1.47;89.09;102787.34;107542;1253;94338;-56
2023/02/07 06:53:27;;;;;;;66.80;33.50;;;;;;;-1.44;88.92;102790.25;107477;1253;80932;-56
2023/02/07 06:56:04;;;;;;;54.90;28.50;;;;;;;-1.41;88.86;102792.45;107533;1254;81906;-57
2023/02/07 06:58:46;;;;;;;45.80;24.90;;;;;;;-1.41;88.91;102791.91;107347;1253;99358;-56
2023/02/07 07:01:26;;;;;;;36.90;21.20;;;;;;;-1.37;88.95;102789.45;107510;1258;89365;-56
2023/02/07 07:04:03;;;;;;;35.10;20.50;;;;;;;-1.33;88.90;102789.83;107508;1254;92851;-56
2023/02/07 07:06:38;;;;;;;36.90;22.00;;;;;;;-1.30;88.89;102791.69;107482;1259;80754;-57
2023/02/07 07:09:17;;;;;;;41.40;21.90;;;;;;;-1.28;88.93;102794.80;107580;1253;80117;-58
2023/02/07 07:11:56;;;;;;;37.20;21.30;;;;;;;-1.26;88.99;102796.83;107513;1254;100011;-58
2023/02/07 07:14:39;;;;;;;34.70;19.50;;;;;;;-1.22;88.85;102792.79;107547;1256;88436;-58
2023/02/07 07:17:18;;;;;;;33.40;18.60;;;;;;;-1.18;88.97;102794.42;107502;1253;95282;-58
